sensor_id;sensor_type;location;lat;lon;timestamp;pressure;altitude;pressure_sealevel;temperature;humidity
76285;BME280;71676;50.998;7.098;2023-10-08T00:01:41;101682.78;;;16.10;58.04
76285;BME280;71676;50.998;7.098;2023-10-08T00:04:09;101686.22;;;16.09;57.64
76285;BME280;71676;50.998;7.098;2023-10-08T00:06:37;101650.69;;;15.92;58.15
76285;BME280;71676;50.998;7.098;2023-10-08T00:09:04;101686.22;;;16.09;57.99
76285;BME280;71676;50.998;7.098;2023-10-08T00:11:38;101690.56;;;16.12;57.75
76285;BME280;71676;50.998;7.098;2023-10-08T00:14:05;101689.69;;;16.11;58.76
76285;BME280;71676;50.998;7.098;2023-10-08T00:16:35;101682.75;;;16.06;57.77
76285;BME280;71676;50.998;7.098;2023-10-08T00:19:05;101699.22;;;16.06;58.38
76285;BME280;71676;50.998;7.098;2023-10-08T00:21:34;101684.50;;;16.02;58.00
76285;BME280;71676;50.998;7.098;2023-10-08T00:24:02;101665.44;;;15.94;57.99
76285;BME280;71676;50.998;7.098;2023-10-08T00:26:32;101686.22;;;16.05;57.95
76285;BME280;71676;50.998;7.098;2023-10-08T00:29:03;101682.75;;;16.06;57.97
76285;BME280;71676;50.998;7.098;2023-10-08T00:31:40;101642.91;;;15.80;58.09
76285;BME280;71676;50.998;7.098;2023-10-08T00:34:07;101674.09;;;15.89;58.10
76285;BME280;71676;50.998;7.098;2023-10-08T00:36:37;101683.63;;;15.99;58.27
76285;BME280;71676;50.998;7.098;2023-10-08T00:39:04;101690.56;;;15.97;58.31
76285;BME280;71676;50.998;7.098;2023-10-08T00:41:34;101689.69;;;15.93;58.29
76285;BME280;71676;50.998;7.098;2023-10-08T00:44:07;101698.38;;;15.88;58.47
76285;BME280;71676;50.998;7.098;2023-10-08T00:46:34;101701.84;;;15.90;58.31
76285;BME280;71676;50.998;7.098;2023-10-08T00:49:08;101697.50;;;15.89;58.27
76285;BME280;71676;50.998;7.098;2023-10-08T00:51:50;101691.41;;;15.88;58.54
76285;BME280;71676;50.998;7.098;2023-10-08T00:54:26;101688.81;;;15.88;58.40
76285;BME280;71676;50.998;7.098;2023-10-08T00:56:53;101680.19;;;15.83;58.52
76285;BME280;71676;50.998;7.098;2023-10-08T00:59:24;101673.22;;;15.79;58.61
76285;BME280;71676;50.998;7.098;2023-10-08T01:01:52;101678.41;;;15.85;58.68
76285;BME280;71676;50.998;7.098;2023-10-08T01:04:25;101678.41;;;15.85;58.80
76285;BME280;71676;50.998;7.098;2023-10-08T01:06:53;101671.50;;;15.81;58.68
76285;BME280;71676;50.998;7.098;2023-10-08T01:09:24;101683.63;;;15.84;58.87
76285;BME280;71676;50.998;7.098;2023-10-08T01:12:10;101696.63;;;15.84;58.45
76285;BME280;71676;50.998;7.098;2023-10-08T01:14:42;101690.56;;;15.77;58.80
76285;BME280;71676;50.998;7.098;2023-10-08T01:17:09;101689.72;;;15.78;58.75
76285;BME280;71676;50.998;7.098;2023-10-08T01:19:38;101683.63;;;15.79;58.99
76285;BME280;71676;50.998;7.098;2023-10-08T01:22:08;101689.72;;;15.78;58.67
76285;BME280;71676;50.998;7.098;2023-10-08T01:24:42;101679.31;;;15.75;58.69
76285;BME280;71676;50.998;7.098;2023-10-08T01:27:09;101669.75;;;15.76;58.46
76285;BME280;71676;50.998;7.098;2023-10-08T01:29:37;101661.09;;;15.74;58.99
76285;BME280;71676;50.998;7.098;2023-10-08T01:32:04;101666.28;;;15.72;58.73
76285;BME280;71676;50.998;7.098;2023-10-08T01:34:35;101668.88;;;15.71;58.93
76285;BME280;71676;50.998;7.098;2023-10-08T01:37:02;101645.50;;;15.57;58.70
76285;BME280;71676;50.998;7.098;2023-10-08T01:39:36;101660.22;;;15.69;58.67
76285;BME280;71676;50.998;7.098;2023-10-08T01:42:03;101651.56;;;15.58;58.90
76285;BME280;71676;50.998;7.098;2023-10-08T01:44:31;101671.47;;;15.66;58.60
76285;BME280;71676;50.998;7.098;2023-10-08T01:46:59;101691.44;;;15.66;59.13
76285;BME280;71676;50.998;7.098;2023-10-08T01:49:26;101696.66;;;15.64;58.81
76285;BME280;71676;50.998;7.098;2023-10-08T01:51:58;101685.38;;;15.61;58.75
76285;BME280;71676;50.998;7.098;2023-10-08T01:54:31;101691.41;;;15.60;58.85
76285;BME280;71676;50.998;7.098;2023-10-08T01:57:02;101702.69;;;15.59;58.75
76285;BME280;71676;50.998;7.098;2023-10-08T01:59:31;101691.41;;;15.57;58.77
76285;BME280;71676;50.998;7.098;2023-10-08T02:01:57;101700.94;;;15.55;59.17
76285;BME280;71676;50.998;7.098;2023-10-08T02:04:24;101699.22;;;15.55;58.96
76285;BME280;71676;50.998;7.098;2023-10-08T02:06:51;101698.31;;;15.53;59.01
76285;BME280;71676;50.998;7.098;2023-10-08T02:09:17;101687.03;;;15.47;58.98
76285;BME280;71676;50.998;7.098;2023-10-08T02:11:53;101692.28;;;15.48;59.09
76285;BME280;71676;50.998;7.098;2023-10-08T02:14:21;101687.94;;;15.44;59.05
76285;BME280;71676;50.998;7.098;2023-10-08T02:16:49;101690.53;;;15.44;59.23
76285;BME280;71676;50.998;7.098;2023-10-08T02:19:20;101680.13;;;15.41;58.79
76285;BME280;71676;50.998;7.098;2023-10-08T02:21:52;101697.44;;;15.41;59.14
76285;BME280;71676;50.998;7.098;2023-10-08T02:24:19;101687.91;;;15.38;59.16
76285;BME280;71676;50.998;7.098;2023-10-08T02:26:47;101696.53;;;15.37;59.35
76285;BME280;71676;50.998;7.098;2023-10-08T02:29:14;101689.59;;;15.29;59.18
76285;BME280;71676;50.998;7.098;2023-10-08T02:31:42;101696.50;;;15.25;59.65
76285;BME280;71676;50.998;7.098;2023-10-08T02:34:10;101706.91;;;15.27;59.65
76285;BME280;71676;50.998;7.098;2023-10-08T02:36:38;101714.69;;;15.25;59.22
76285;BME280;71676;50.998;7.098;2023-10-08T02:39:06;101708.63;;;15.26;59.57
76285;BME280;71676;50.998;7.098;2023-10-08T02:41:39;101700.81;;;15.19;59.34
76285;BME280;71676;50.998;7.098;2023-10-08T02:44:07;101695.63;;;15.25;59.69
76285;BME280;71676;50.998;7.098;2023-10-08T02:46:38;101679.13;;;15.08;59.67
76285;BME280;71676;50.998;7.098;2023-10-08T02:49:07;101714.69;;;15.24;59.60
76285;BME280;71676;50.998;7.098;2023-10-08T02:51:36;101706.91;;;15.22;59.75
76285;BME280;71676;50.998;7.098;2023-10-08T02:54:03;101700.81;;;15.22;59.62
76285;BME280;71676;50.998;7.098;2023-10-08T02:56:31;101700.81;;;15.22;59.82
76285;BME280;71676;50.998;7.098;2023-10-08T02:58:58;101689.56;;;15.21;59.64
76285;BME280;71676;50.998;7.098;2023-10-08T03:01:25;101697.34;;;15.17;59.75
76285;BME280;71676;50.998;7.098;2023-10-08T03:03:52;101604.53;;;14.67;59.28
76285;BME280;71676;50.998;7.098;2023-10-08T03:06:29;101675.72;;;15.15;60.12
76285;BME280;71676;50.998;7.098;2023-10-08T03:08:57;101697.34;;;15.12;60.10
76285;BME280;71676;50.998;7.098;2023-10-08T03:11:29;101700.81;;;15.13;60.07
76285;BME280;71676;50.998;7.098;2023-10-08T03:13:56;101704.28;;;15.15;59.97
76285;BME280;71676;50.998;7.098;2023-10-08T03:16:23;101694.75;;;15.17;60.06
76285;BME280;71676;50.998;7.098;2023-10-08T03:18:53;101696.50;;;15.18;59.94
76285;BME280;71676;50.998;7.098;2023-10-08T03:21:22;101711.22;;;15.17;60.13
76285;BME280;71676;50.998;7.098;2023-10-08T03:24:10;101712.94;;;15.20;59.79
76285;BME280;71676;50.998;7.098;2023-10-08T03:26:55;101710.31;;;15.15;59.53
76285;BME280;71676;50.998;7.098;2023-10-08T03:29:32;101712.94;;;15.14;59.92
76285;BME280;71676;50.998;7.098;2023-10-08T03:32:05;101719.88;;;15.19;60.04
76285;BME280;71676;50.998;7.098;2023-10-08T03:34:32;101733.72;;;15.20;60.07
76285;BME280;71676;50.998;7.098;2023-10-08T03:37:02;101732.88;;;15.21;60.06
76285;BME280;71676;50.998;7.098;2023-10-08T03:39:33;101728.53;;;15.20;60.41
76285;BME280;71676;50.998;7.098;2023-10-08T03:42:30;101732.88;;;15.18;60.26
76285;BME280;71676;50.998;7.098;2023-10-08T03:45:00;101725.91;;;15.14;60.61
76285;BME280;71676;50.998;7.098;2023-10-08T03:47:36;101720.72;;;15.14;60.30
76285;BME280;71676;50.998;7.098;2023-10-08T03:50:04;101711.19;;;15.11;60.44
76285;BME280;71676;50.998;7.098;2023-10-08T03:52:36;101700.81;;;15.08;60.52
76285;BME280;71676;50.998;7.098;2023-10-08T03:55:04;101696.41;;;14.94;60.61
76285;BME280;71676;50.998;7.098;2023-10-08T03:57:39;101729.38;;;15.10;60.38
76285;BME280;71676;50.998;7.098;2023-10-08T04:00:10;101741.50;;;15.11;60.53
76285;BME280;71676;50.998;7.098;2023-10-08T04:02:40;101746.69;;;15.11;60.51
76285;BME280;71676;50.998;7.098;2023-10-08T04:05:11;101745.81;;;15.10;60.26
76285;BME280;71676;50.998;7.098;2023-10-08T04:07:52;101744.97;;;15.10;60.15
76285;BME280;71676;50.998;7.098;2023-10-08T04:10:42;101699.91;;;14.99;60.36
76285;BME280;71676;50.998;7.098;2023-10-08T04:13:28;101696.41;;;14.97;60.87
76285;BME280;71676;50.998;7.098;2023-10-08T04:15:56;101709.41;;;14.97;60.33
76285;BME280;71676;50.998;7.098;2023-10-08T04:18:23;101724.09;;;14.96;60.42
76285;BME280;71676;50.998;7.098;2023-10-08T04:20:49;101714.59;;;14.97;60.51
76285;BME280;71676;50.998;7.098;2023-10-08T04:23:29;101716.31;;;14.98;60.68
76285;BME280;71676;50.998;7.098;2023-10-08T04:25:56;101697.25;;;14.96;60.36
76285;BME280;71676;50.998;7.098;2023-10-08T04:28:23;101719.81;;;14.98;59.79
76285;BME280;71676;50.998;7.098;2023-10-08T04:30:55;101718.09;;;15.02;60.13
76285;BME280;71676;50.998;7.098;2023-10-08T04:33:41;101740.59;;;15.03;60.25
76285;BME280;71676;50.998;7.098;2023-10-08T04:36:08;101723.28;;;15.02;59.92
76285;BME280;71676;50.998;7.098;2023-10-08T04:38:34;101703.34;;;14.96;59.69
76285;BME280;71676;50.998;7.098;2023-10-08T04:41:05;101704.22;;;14.97;59.95
76285;BME280;71676;50.998;7.098;2023-10-08T04:43:35;101698.13;;;14.92;60.01
76285;BME280;71676;50.998;7.098;2023-10-08T04:46:05;101714.59;;;14.95;60.42
76285;BME280;71676;50.998;7.098;2023-10-08T04:48:44;101731.03;;;14.96;60.28
76285;BME280;71676;50.998;7.098;2023-10-08T04:51:11;101745.75;;;14.97;60.33
76285;BME280;71676;50.998;7.098;2023-10-08T04:53:39;101750.09;;;14.98;60.10
76285;BME280;71676;50.998;7.098;2023-10-08T04:56:10;101760.47;;;14.98;59.78
76285;BME280;71676;50.998;7.098;2023-10-08T04:58:42;101764.81;;;14.97;59.80
76285;BME280;71676;50.998;7.098;2023-10-08T05:01:13;101743.09;;;14.88;59.65
76285;BME280;71676;50.998;7.098;2023-10-08T05:03:44;101757.88;;;14.96;59.79
76285;BME280;71676;50.998;7.098;2023-10-08T05:06:33;101756.16;;;14.94;59.62
76285;BME280;71676;50.998;7.098;2023-10-08T05:09:15;101761.34;;;14.92;59.78
76285;BME280;71676;50.998;7.098;2023-10-08T05:11:49;101748.34;;;14.89;59.63
76285;BME280;71676;50.998;7.098;2023-10-08T05:14:34;101756.09;;;14.88;59.56
76285;BME280;71676;50.998;7.098;2023-10-08T05:17:06;101739.59;;;14.78;60.00
76285;BME280;71676;50.998;7.098;2023-10-08T05:19:36;101750.88;;;14.84;59.64
76285;BME280;71676;50.998;7.098;2023-10-08T05:22:17;101739.66;;;14.86;59.63
76285;BME280;71676;50.998;7.098;2023-10-08T05:24:59;101735.31;;;14.84;59.73
76285;BME280;71676;50.998;7.098;2023-10-08T05:27:33;101746.56;;;14.82;59.85
76285;BME280;71676;50.998;7.098;2023-10-08T05:30:18;101757.84;;;14.86;59.78
76285;BME280;71676;50.998;7.098;2023-10-08T05:32:54;101761.25;;;14.83;59.55
76285;BME280;71676;50.998;7.098;2023-10-08T05:35:37;101759.56;;;14.87;60.01
76285;BME280;71676;50.998;7.098;2023-10-08T05:38:22;101760.41;;;14.81;59.79
76285;BME280;71676;50.998;7.098;2023-10-08T05:40:49;101759.53;;;14.80;59.62
76285;BME280;71676;50.998;7.098;2023-10-08T05:43:31;101777.72;;;14.80;59.91
76285;BME280;71676;50.998;7.098;2023-10-08T05:46:15;101791.53;;;14.79;59.59
76285;BME280;71676;50.998;7.098;2023-10-08T05:49:06;101794.13;;;14.78;59.46
76285;BME280;71676;50.998;7.098;2023-10-08T05:51:51;101799.28;;;14.75;59.58
76285;BME280;71676;50.998;7.098;2023-10-08T05:54:39;101794.97;;;14.72;59.89
76285;BME280;71676;50.998;7.098;2023-10-08T05:57:23;101803.63;;;14.73;59.78
76285;BME280;71676;50.998;7.098;2023-10-08T06:00:05;101810.56;;;14.74;60.11
76285;BME280;71676;50.998;7.098;2023-10-08T06:02:55;101807.06;;;14.70;60.11
76285;BME280;71676;50.998;7.098;2023-10-08T06:05:37;101820.94;;;14.75;60.18
76285;BME280;71676;50.998;7.098;2023-10-08T06:08:29;101818.34;;;14.75;59.76
76285;BME280;71676;50.998;7.098;2023-10-08T06:11:14;101814.03;;;14.74;59.86
76285;BME280;71676;50.998;7.098;2023-10-08T06:13:52;101822.69;;;14.79;59.67
76285;BME280;71676;50.998;7.098;2023-10-08T06:16:25;101812.28;;;14.78;59.85
76285;BME280;71676;50.998;7.098;2023-10-08T06:18:56;101795.88;;;14.77;59.88
76285;BME280;71676;50.998;7.098;2023-10-08T06:21:24;101803.63;;;14.73;59.94
76285;BME280;71676;50.998;7.098;2023-10-08T06:23:52;101797.56;;;14.72;60.30
76285;BME280;71676;50.998;7.098;2023-10-08T06:26:21;101781.09;;;14.72;60.35
76285;BME280;71676;50.998;7.098;2023-10-08T06:28:50;101781.09;;;14.69;60.27
76285;BME280;71676;50.998;7.098;2023-10-08T06:31:22;101787.97;;;14.65;60.49
76285;BME280;71676;50.998;7.098;2023-10-08T06:33:52;101782.84;;;14.71;60.85
76285;BME280;71676;50.998;7.098;2023-10-08T06:36:20;101770.69;;;14.64;60.39
76285;BME280;71676;50.998;7.098;2023-10-08T06:38:50;101783.72;;;14.75;60.41
76285;BME280;71676;50.998;7.098;2023-10-08T06:41:17;101782.00;;;14.77;60.17
76285;BME280;71676;50.998;7.098;2023-10-08T06:43:46;101793.28;;;14.79;60.61
76285;BME280;71676;50.998;7.098;2023-10-08T06:46:14;101810.59;;;14.81;60.54
76285;BME280;71676;50.998;7.098;2023-10-08T06:48:46;101815.78;;;14.83;60.66
76285;BME280;71676;50.998;7.098;2023-10-08T06:51:15;101805.41;;;14.83;60.63
76285;BME280;71676;50.998;7.098;2023-10-08T06:53:44;101811.50;;;14.85;60.76
76285;BME280;71676;50.998;7.098;2023-10-08T06:56:13;101833.16;;;14.87;60.57
76285;BME280;71676;50.998;7.098;2023-10-08T06:58:40;101822.66;;;14.75;60.58
76285;BME280;71676;50.998;7.098;2023-10-08T07:01:11;101830.56;;;14.89;60.58
76285;BME280;71676;50.998;7.098;2023-10-08T07:03:38;101823.66;;;14.89;60.88
76285;BME280;71676;50.998;7.098;2023-10-08T07:06:05;101812.38;;;14.89;60.72
76285;BME280;71676;50.998;7.098;2023-10-08T07:08:42;101812.38;;;14.90;60.87
76285;BME280;71676;50.998;7.098;2023-10-08T07:11:13;101802.88;;;14.91;60.88
76285;BME280;71676;50.998;7.098;2023-10-08T07:13:40;101802.81;;;14.83;60.63
76285;BME280;71676;50.998;7.098;2023-10-08T07:16:08;101825.38;;;14.92;60.62
76285;BME280;71676;50.998;7.098;2023-10-08T07:18:36;101820.19;;;14.95;60.82
76285;BME280;71676;50.998;7.098;2023-10-08T07:21:03;101821.91;;;14.94;60.52
76285;BME280;71676;50.998;7.098;2023-10-08T07:23:37;101813.31;;;14.98;60.73
76285;BME280;71676;50.998;7.098;2023-10-08T07:26:22;101815.91;;;15.00;61.07
76285;BME280;71676;50.998;7.098;2023-10-08T07:28:50;101824.59;;;15.02;61.06
76285;BME280;71676;50.998;7.098;2023-10-08T07:31:19;101819.41;;;15.05;61.14
76285;BME280;71676;50.998;7.098;2023-10-08T07:33:48;101809.84;;;15.04;60.73
76285;BME280;71676;50.998;7.098;2023-10-08T07:36:22;101822.03;;;15.09;60.53
76285;BME280;71676;50.998;7.098;2023-10-08T07:38:48;101840.22;;;15.11;60.56
76285;BME280;71676;50.998;7.098;2023-10-08T07:41:15;101842.81;;;15.12;60.90
76285;BME280;71676;50.998;7.098;2023-10-08T07:43:46;101822.84;;;15.05;60.67
76285;BME280;71676;50.998;7.098;2023-10-08T07:46:21;101831.59;;;15.16;60.49
76285;BME280;71676;50.998;7.098;2023-10-08T07:48:47;101850.63;;;15.17;60.05
76285;BME280;71676;50.998;7.098;2023-10-08T07:51:15;101847.16;;;15.13;60.52
76285;BME280;71676;50.998;7.098;2023-10-08T07:53:47;101865.41;;;15.21;60.48
76285;BME280;71676;50.998;7.098;2023-10-08T07:56:14;101867.13;;;15.25;60.17
76285;BME280;71676;50.998;7.098;2023-10-08T07:58:40;101863.69;;;15.23;60.38
76285;BME280;71676;50.998;7.098;2023-10-08T08:01:08;101868.91;;;15.30;60.02
76285;BME280;71676;50.998;7.098;2023-10-08T08:03:39;101870.66;;;15.33;60.18
76285;BME280;71676;50.998;7.098;2023-10-08T08:06:07;101875.00;;;15.35;60.28
76285;BME280;71676;50.998;7.098;2023-10-08T08:08:35;101870.66;;;15.36;60.08
76285;BME280;71676;50.998;7.098;2023-10-08T08:11:02;101881.94;;;15.38;60.16
76285;BME280;71676;50.998;7.098;2023-10-08T08:13:33;101879.34;;;15.38;60.17
76285;BME280;71676;50.998;7.098;2023-10-08T08:16:00;101882.00;;;15.41;60.20
76285;BME280;71676;50.998;7.098;2023-10-08T08:18:37;101870.75;;;15.45;60.40
76285;BME280;71676;50.998;7.098;2023-10-08T08:21:08;101872.50;;;15.49;60.39
76285;BME280;71676;50.998;7.098;2023-10-08T08:23:39;101875.09;;;15.53;59.70
76285;BME280;71676;50.998;7.098;2023-10-08T08:26:06;101865.59;;;15.51;59.67
76285;BME280;71676;50.998;7.098;2023-10-08T08:28:37;101872.50;;;15.50;59.77
76285;BME280;71676;50.998;7.098;2023-10-08T08:31:04;101874.28;;;15.56;59.61
76285;BME280;71676;50.998;7.098;2023-10-08T08:33:40;101881.22;;;15.61;59.32
76285;BME280;71676;50.998;7.098;2023-10-08T08:36:19;101877.78;;;15.62;59.26
76285;BME280;71676;50.998;7.098;2023-10-08T08:38:46;101873.47;;;15.67;59.62
76285;BME280;71676;50.998;7.098;2023-10-08T08:41:14;101876.06;;;15.66;59.54
76285;BME280;71676;50.998;7.098;2023-10-08T08:43:44;101881.28;;;15.69;59.72
76285;BME280;71676;50.998;7.098;2023-10-08T08:46:11;101874.31;;;15.68;59.30
76285;BME280;71676;50.998;7.098;2023-10-08T08:48:41;101878.69;;;15.76;59.51
76285;BME280;71676;50.998;7.098;2023-10-08T08:51:09;101882.16;;;15.75;59.63
76285;BME280;71676;50.998;7.098;2023-10-08T08:53:37;101884.78;;;15.80;59.11
76285;BME280;71676;50.998;7.098;2023-10-08T08:56:06;101889.97;;;15.83;58.80
76285;BME280;71676;50.998;7.098;2023-10-08T08:58:34;101896.91;;;15.85;59.32
76285;BME280;71676;50.998;7.098;2023-10-08T09:01:02;101900.41;;;15.90;59.09
76285;BME280;71676;50.998;7.098;2023-10-08T09:03:30;101897.81;;;15.93;59.40
76285;BME280;71676;50.998;7.098;2023-10-08T09:05:58;101886.56;;;15.93;59.72
76285;BME280;71676;50.998;7.098;2023-10-08T09:08:28;101888.28;;;15.97;59.12
76285;BME280;71676;50.998;7.098;2023-10-08T09:11:00;101886.56;;;16.02;58.90
76285;BME280;71676;50.998;7.098;2023-10-08T09:13:27;101877.88;;;16.06;59.38
76285;BME280;71676;50.998;7.098;2023-10-08T09:15:56;101888.34;;;16.07;58.87
76285;BME280;71676;50.998;7.098;2023-10-08T09:18:24;101883.13;;;16.10;59.00
76285;BME280;71676;50.998;7.098;2023-10-08T09:20:52;101881.41;;;16.15;58.72
76285;BME280;71676;50.998;7.098;2023-10-08T09:23:21;101886.63;;;16.17;59.05
76285;BME280;71676;50.998;7.098;2023-10-08T09:25:50;101883.13;;;16.21;58.76
76285;BME280;71676;50.998;7.098;2023-10-08T09:28:24;101873.59;;;16.17;58.96
76285;BME280;71676;50.998;7.098;2023-10-08T09:30:52;101895.34;;;16.25;58.71
76285;BME280;71676;50.998;7.098;2023-10-08T09:33:20;101901.41;;;16.29;58.64
76285;BME280;71676;50.998;7.098;2023-10-08T09:35:47;101904.88;;;16.31;59.08
76285;BME280;71676;50.998;7.098;2023-10-08T09:38:15;101908.34;;;16.31;58.59
76285;BME280;71676;50.998;7.098;2023-10-08T09:40:49;101908.38;;;16.37;58.49
76285;BME280;71676;50.998;7.098;2023-10-08T09:43:17;101903.16;;;16.36;58.49
76285;BME280;71676;50.998;7.098;2023-10-08T09:45:47;101914.44;;;16.41;58.88
76285;BME280;71676;50.998;7.098;2023-10-08T09:48:20;101919.66;;;16.47;58.04
76285;BME280;71676;50.998;7.098;2023-10-08T09:50:47;101903.16;;;16.39;58.09
76285;BME280;71676;50.998;7.098;2023-10-08T09:53:14;101919.66;;;16.56;57.64
76285;BME280;71676;50.998;7.098;2023-10-08T09:55:45;101924.91;;;16.57;58.03
76285;BME280;71676;50.998;7.098;2023-10-08T09:58:16;101930.97;;;16.65;58.15
76285;BME280;71676;50.998;7.098;2023-10-08T10:00:44;101930.97;;;16.70;57.63
76285;BME280;71676;50.998;7.098;2023-10-08T10:03:14;101925.75;;;16.73;57.72
76285;BME280;71676;50.998;7.098;2023-10-08T10:05:44;101934.47;;;16.78;57.70
76285;BME280;71676;50.998;7.098;2023-10-08T10:08:11;101943.13;;;16.81;57.40
76285;BME280;71676;50.998;7.098;2023-10-08T10:10:38;101939.66;;;16.85;57.40
76285;BME280;71676;50.998;7.098;2023-10-08T10:13:06;101944.00;;;16.86;57.88
76285;BME280;71676;50.998;7.098;2023-10-08T10:15:36;101936.19;;;16.95;57.75
76285;BME280;71676;50.998;7.098;2023-10-08T10:18:08;101897.97;;;16.79;58.05
76285;BME280;71676;50.998;7.098;2023-10-08T10:20:39;101939.69;;;17.06;57.75
76285;BME280;71676;50.998;7.098;2023-10-08T10:23:37;101926.63;;;17.14;56.58
76285;BME280;71676;50.998;7.098;2023-10-08T10:26:06;101927.53;;;17.08;57.07
76285;BME280;71676;50.998;7.098;2023-10-08T10:29:17;101930.09;;;17.20;57.07
76285;BME280;71676;50.998;7.098;2023-10-08T10:31:47;101929.22;;;17.21;56.97
76285;BME280;71676;50.998;7.098;2023-10-08T10:34:17;101916.19;;;17.21;57.03
76285;BME280;71676;50.998;7.098;2023-10-08T10:36:45;101924.84;;;17.32;56.99
76285;BME280;71676;50.998;7.098;2023-10-08T10:39:15;101930.94;;;17.34;56.94
76285;BME280;71676;50.998;7.098;2023-10-08T10:41:44;101930.94;;;17.43;56.90
76285;BME280;71676;50.998;7.098;2023-10-08T10:46:40;101930.03;;;17.52;56.69
76285;BME280;71676;50.998;7.098;2023-10-08T10:49:09;101922.19;;;17.56;56.74
76285;BME280;71676;50.998;7.098;2023-10-08T10:51:48;101919.56;;;17.63;56.50
76285;BME280;71676;50.998;7.098;2023-10-08T10:54:17;101919.59;;;17.61;56.14
76285;BME280;71676;50.998;7.098;2023-10-08T10:56:49;101914.34;;;17.69;57.00
76285;BME280;71676;50.998;7.098;2023-10-08T10:59:29;101920.41;;;17.71;55.99
76285;BME280;71676;50.998;7.098;2023-10-08T11:02:01;101919.50;;;17.78;56.30
76285;BME280;71676;50.998;7.098;2023-10-08T11:04:35;101889.13;;;17.63;56.01
76285;BME280;71676;50.998;7.098;2023-10-08T11:07:13;101916.88;;;17.85;55.98
76285;BME280;71676;50.998;7.098;2023-10-08T11:09:41;101922.09;;;17.93;55.98
76285;BME280;71676;50.998;7.098;2023-10-08T11:12:10;101924.72;;;17.91;55.53
76285;BME280;71676;50.998;7.098;2023-10-08T11:14:38;101918.59;;;17.94;55.52
76285;BME280;71676;50.998;7.098;2023-10-08T11:17:13;101907.31;;;17.93;54.69
76285;BME280;71676;50.998;7.098;2023-10-08T11:19:42;101912.50;;;17.99;55.17
76285;BME280;71676;50.998;7.098;2023-10-08T11:22:11;101919.44;;;17.97;54.54
76285;BME280;71676;50.998;7.098;2023-10-08T11:24:42;101896.00;;;17.79;55.22
76285;BME280;71676;50.998;7.098;2023-10-08T11:27:13;101922.00;;;18.11;55.80
76285;BME280;71676;50.998;7.098;2023-10-08T11:29:43;101924.56;;;18.20;55.71
76285;BME280;71676;50.998;7.098;2023-10-08T11:32:11;101902.84;;;18.12;55.51
76285;BME280;71676;50.998;7.098;2023-10-08T11:34:42;101919.31;;;18.23;54.10
76285;BME280;71676;50.998;7.098;2023-10-08T11:37:15;101919.25;;;18.29;55.50
76285;BME280;71676;50.998;7.098;2023-10-08T11:39:52;101920.94;;;18.39;55.14
76285;BME280;71676;50.998;7.098;2023-10-08T11:42:23;101915.66;;;18.51;55.21
76285;BME280;71676;50.998;7.098;2023-10-08T11:45:06;101906.06;;;18.50;54.82
76285;BME280;71676;50.998;7.098;2023-10-08T11:47:45;101897.31;;;18.58;55.55
76285;BME280;71676;50.998;7.098;2023-10-08T11:50:15;101899.84;;;18.69;54.91
76285;BME280;71676;50.998;7.098;2023-10-08T11:52:45;101903.25;;;18.77;53.93
76285;BME280;71676;50.998;7.098;2023-10-08T11:55:12;101898.06;;;18.75;53.87
76285;BME280;71676;50.998;7.098;2023-10-08T11:57:43;101900.59;;;18.83;54.54
76285;BME280;71676;50.998;7.098;2023-10-08T12:00:12;101890.16;;;18.81;53.76
76285;BME280;71676;50.998;7.098;2023-10-08T12:02:44;101891.88;;;18.85;54.05
76285;BME280;71676;50.998;7.098;2023-10-08T12:05:11;101878.75;;;18.91;54.12
76285;BME280;71676;50.998;7.098;2023-10-08T12:07:46;101882.22;;;18.93;54.02
76285;BME280;71676;50.998;7.098;2023-10-08T12:10:12;101884.00;;;18.90;54.14
76285;BME280;71676;50.998;7.098;2023-10-08T12:12:42;101888.31;;;18.92;54.00
76285;BME280;71676;50.998;7.098;2023-10-08T12:15:09;101887.38;;;18.99;54.32
76285;BME280;71676;50.998;7.098;2023-10-08T12:17:38;101859.59;;;18.89;53.91
76285;BME280;71676;50.998;7.098;2023-10-08T12:20:06;101874.25;;;19.06;53.68
76285;BME280;71676;50.998;7.098;2023-10-08T12:22:49;101882.13;;;19.01;53.55
76285;BME280;71676;50.998;7.098;2023-10-08T12:25:16;101874.31;;;18.98;53.96
76285;BME280;71676;50.998;7.098;2023-10-08T12:27:42;101876.84;;;19.07;54.38
76285;BME280;71676;50.998;7.098;2023-10-08T12:30:10;101870.66;;;19.14;53.65
76285;BME280;71676;50.998;7.098;2023-10-08T12:32:37;101874.13;;;19.18;53.69
76285;BME280;71676;50.998;7.098;2023-10-08T12:35:07;101858.50;;;19.09;54.40
76285;BME280;71676;50.998;7.098;2023-10-08T12:37:38;101865.38;;;19.19;53.85
76285;BME280;71676;50.998;7.098;2023-10-08T12:40:08;101874.97;;;19.20;54.07
76285;BME280;71676;50.998;7.098;2023-10-08T12:42:47;101876.69;;;19.22;53.75
76285;BME280;71676;50.998;7.098;2023-10-08T12:45:15;101877.59;;;19.17;54.03
76285;BME280;71676;50.998;7.098;2023-10-08T12:47:47;101871.53;;;19.16;53.62
76285;BME280;71676;50.998;7.098;2023-10-08T12:50:15;101860.28;;;19.08;54.24
76285;BME280;71676;50.998;7.098;2023-10-08T12:52:42;101846.31;;;19.11;54.09
76285;BME280;71676;50.998;7.098;2023-10-08T12:55:19;101855.00;;;19.13;54.22
76285;BME280;71676;50.998;7.098;2023-10-08T12:57:50;101873.34;;;19.08;54.21
76285;BME280;71676;50.998;7.098;2023-10-08T13:00:21;101846.25;;;19.14;54.74
76285;BME280;71676;50.998;7.098;2023-10-08T13:02:49;101829.69;;;19.16;54.27
76285;BME280;71676;50.998;7.098;2023-10-08T13:05:19;101838.44;;;19.12;54.11
76285;BME280;71676;50.998;7.098;2023-10-08T13:07:52;101827.13;;;19.09;54.30
76285;BME280;71676;50.998;7.098;2023-10-08T13:10:22;101844.56;;;19.10;54.15
76285;BME280;71676;50.998;7.098;2023-10-08T13:12:49;101837.59;;;19.12;54.42
76285;BME280;71676;50.998;7.098;2023-10-08T13:15:15;101813.22;;;19.08;54.11